Time;durP1;ratioP1;P1;durP2;ratioP2;P2;SDS_P1;SDS_P2;PMS_P1;PMS_P2;Temp;Humidity;BMP_temperature;BMP_pressure;BME280_temperature;BME280_humidity;BME280_pressure;Samples;Min_cycle;Max_cycle;Signal;HPM_P1;HPM_P2
2022/06/06 00:02:21;;;;;;;3.50;2.77;;;;;;;;;;4950144;28;20441;-56
2022/06/06 00:04:56;;;;;;;4.10;2.10;;;;;;;;;;4943442;28;20828;-55
2022/06/06 00:07:22;;;;;;;2.87;2.57;;;;;;;;;;4944864;28;20516;-56
2022/06/06 00:09:48;;;;;;;3.80;2.70;;;;;;;;;;4946162;28;20446;-55
2022/06/06 00:12:15;;;;;;;3.87;2.50;;;;;;;;;;4939502;28;20185;-56
2022/06/06 00:14:42;;;;;;;4.27;2.83;;;;;;;;;;4939185;28;20517;-55
2022/06/06 00:17:08;;;;;;;3.40;2.43;;;;;;;;;;4933990;28;20490;-55
2022/06/06 00:19:58;;;;;;;2.63;2.43;;;;;;;;;;4946632;28;21000;-55
2022/06/06 00:22:35;;;;;;;3.33;3.03;;;;;;;;;;4934616;28;20454;-55
2022/06/06 00:25:01;;;;;;;3.10;2.70;;;;;;;;;;4948233;28;20450;-55
2022/06/06 00:27:27;;;;;;;4.07;2.90;;;;;;;;;;4948900;28;20449;-55
2022/06/06 00:29:53;;;;;;;3.27;2.80;;;;;;;;;;4950338;28;20975;-56
2022/06/06 00:35:05;;;;;;;2.63;2.43;;;;;;;;;;4948003;28;20602;-59
2022/06/06 00:37:32;;;;;;;6.53;3.03;;;;;;;;;;4943930;28;20643;-56
2022/06/06 00:39:58;;;;;;;3.53;2.87;;;;;;;;;;4944025;28;20533;-56
2022/06/06 00:42:25;;;;;;;2.40;2.20;;;;;;;;;;4944700;28;20514;-56
2022/06/06 00:45:11;;;;;;;3.30;2.87;;;;;;;;;;4933990;28;20877;-55
2022/06/06 00:47:37;;;;;;;3.77;3.30;;;;;;;;;;4949467;28;20423;-54
2022/06/06 00:50:03;;;;;;;3.40;3.10;;;;;;;;;;4930960;28;20453;-54
2022/06/06 00:52:32;;;;;;;4.00;2.40;;;;;;;;;;4941542;28;20195;-55
2022/06/06 00:55:04;;;;;;;3.50;2.73;;;;;;;;;;4918254;28;21617;-55
2022/06/06 00:57:31;;;;;;;3.30;3.00;;;;;;;;;;4941385;28;20454;-56
2022/06/06 00:59:57;;;;;;;3.70;3.33;;;;;;;;;;4948219;28;20482;-55
2022/06/06 01:02:23;;;;;;;6.57;3.43;;;;;;;;;;4937656;28;20445;-56
2022/06/06 01:04:49;;;;;;;4.63;3.00;;;;;;;;;;4947646;28;20442;-56
2022/06/06 01:07:15;;;;;;;3.83;3.20;;;;;;;;;;4937284;28;20510;-56
2022/06/06 01:09:42;;;;;;;6.40;3.47;;;;;;;;;;4948129;28;20949;-58
2022/06/06 01:12:12;;;;;;;3.83;2.80;;;;;;;;;;4945595;28;20434;-55
2022/06/06 01:14:55;;;;;;;4.13;3.23;;;;;;;;;;4944491;28;20451;-56
2022/06/06 01:17:24;;;;;;;4.40;2.97;;;;;;;;;;4934425;28;21044;-55
2022/06/06 01:20:03;;;;;;;4.80;3.13;;;;;;;;;;4941119;28;20569;-55
2022/06/06 01:22:32;;;;;;;2.73;2.53;;;;;;;;;;4940144;28;20455;-56
2022/06/06 01:25:20;;;;;;;3.50;3.10;;;;;;;;;;4931092;28;20992;-54
2022/06/06 01:27:59;;;;;;;3.57;3.27;;;;;;;;;;4951107;28;20438;-55
2022/06/06 01:30:26;;;;;;;3.27;2.97;;;;;;;;;;4913437;28;21143;-55
2022/06/06 01:32:56;;;;;;;6.33;3.43;;;;;;;;;;4949993;28;20801;-56
2022/06/06 01:35:23;;;;;;;2.93;2.63;;;;;;;;;;4929193;28;20979;-56
2022/06/06 01:37:49;;;;;;;3.40;3.10;;;;;;;;;;4954128;28;20475;-55
2022/06/06 01:40:16;;;;;;;5.23;2.80;;;;;;;;;;4947306;28;20598;-54
2022/06/06 01:43:01;;;;;;;4.77;3.60;;;;;;;;;;4947259;28;20792;-54
2022/06/06 01:45:27;;;;;;;3.80;3.40;;;;;;;;;;4942250;28;20446;-56
2022/06/06 01:47:54;;;;;;;3.07;2.70;;;;;;;;;;4953134;28;20774;-56
2022/06/06 01:50:20;;;;;;;3.93;3.13;;;;;;;;;;4943682;28;20431;-57
2022/06/06 01:52:54;;;;;;;4.63;3.57;;;;;;;;;;4953172;28;20459;-56
2022/06/06 01:55:20;;;;;;;4.50;3.20;;;;;;;;;;4931553;28;20806;-56
2022/06/06 01:57:46;;;;;;;3.40;2.90;;;;;;;;;;4951529;28;20954;-54
2022/06/06 02:00:13;;;;;;;3.83;3.40;;;;;;;;;;4910668;28;21402;-56
2022/06/06 02:02:43;;;;;;;3.90;3.43;;;;;;;;;;4955947;28;20446;-56
2022/06/06 02:05:09;;;;;;;3.70;3.07;;;;;;;;;;4949348;28;20486;-55
2022/06/06 02:07:35;;;;;;;5.30;3.60;;;;;;;;;;4953217;28;20868;-55
2022/06/06 02:10:00;;;;;;;3.43;3.13;;;;;;;;;;4943898;28;20486;-55
2022/06/06 02:12:26;;;;;;;3.80;3.50;;;;;;;;;;4948546;28;20975;-55
2022/06/06 02:15:01;;;;;;;5.87;3.70;;;;;;;;;;4944388;28;20902;-53
2022/06/06 02:17:28;;;;;;;5.20;3.60;;;;;;;;;;4946348;28;20461;-55
2022/06/06 02:19:55;;;;;;;4.30;3.23;;;;;;;;;;4942960;28;20478;-55
2022/06/06 02:22:22;;;;;;;6.07;3.60;;;;;;;;;;4949591;28;20449;-55
2022/06/06 02:24:48;;;;;;;5.63;3.67;;;;;;;;;;4950118;28;21175;-54
2022/06/06 02:27:14;;;;;;;3.83;3.27;;;;;;;;;;4947230;28;20446;-54
2022/06/06 02:29:41;;;;;;;7.63;4.17;;;;;;;;;;4938029;28;20492;-55
2022/06/06 02:32:08;;;;;;;4.90;3.60;;;;;;;;;;4908900;29;20194;-56
2022/06/06 02:34:42;;;;;;;4.07;3.73;;;;;;;;;;4962711;28;20438;-55
2022/06/06 02:37:11;;;;;;;3.50;3.20;;;;;;;;;;4933274;28;20536;-56
2022/06/06 02:39:37;;;;;;;4.00;3.20;;;;;;;;;;4944554;28;20482;-56
2022/06/06 02:42:03;;;;;;;5.00;3.57;;;;;;;;;;4945864;28;20548;-59
2022/06/06 02:44:30;;;;;;;3.33;3.03;;;;;;;;;;4950712;28;20450;-56
2022/06/06 02:46:56;;;;;;;4.80;4.40;;;;;;;;;;4942502;28;21253;-55
2022/06/06 02:49:22;;;;;;;4.80;4.30;;;;;;;;;;4946716;28;20487;-55
2022/06/06 02:51:47;;;;;;;5.53;3.50;;;;;;;;;;4945068;28;20450;-55
2022/06/06 02:54:13;;;;;;;4.33;3.47;;;;;;;;;;4949235;28;20199;-55
2022/06/06 02:56:39;;;;;;;4.00;3.53;;;;;;;;;;4931948;28;20206;-54
2022/06/06 02:59:08;;;;;;;3.90;3.47;;;;;;;;;;4951424;28;20956;-55
2022/06/06 03:01:35;;;;;;;5.30;3.30;;;;;;;;;;4948372;28;20503;-55
2022/06/06 03:04:00;;;;;;;4.33;3.97;;;;;;;;;;4955454;28;20465;-56
2022/06/06 03:06:40;;;;;;;3.90;3.60;;;;;;;;;;4907532;28;20435;-56
2022/06/06 03:09:25;;;;;;;5.90;3.00;;;;;;;;;;4949395;28;20695;-56
2022/06/06 03:11:55;;;;;;;4.10;3.67;;;;;;;;;;4946324;28;20532;-55
2022/06/06 03:14:43;;;;;;;4.40;3.73;;;;;;;;;;4952121;28;20431;-57
2022/06/06 03:23:25;;;;;;;5.10;4.20;;;;;;;;;;4939932;28;20653;-56
2022/06/06 03:26:11;;;;;;;7.30;4.50;;;;;;;;;;4929216;28;20577;-56
2022/06/06 03:28:37;;;;;;;5.07;3.97;;;;;;;;;;4952009;28;20955;-58
2022/06/06 03:31:03;;;;;;;5.77;4.70;;;;;;;;;;4947146;28;20443;-56
2022/06/06 03:33:36;;;;;;;5.40;4.87;;;;;;;;;;4949139;28;20439;-56
2022/06/06 03:36:09;;;;;;;7.30;4.33;;;;;;;;;;4909614;28;20459;-56
2022/06/06 03:38:38;;;;;;;4.20;3.90;;;;;;;;;;4951374;28;20494;-55
2022/06/06 03:41:23;;;;;;;4.30;3.83;;;;;;;;;;4938586;28;20454;-56
2022/06/06 03:43:58;;;;;;;9.20;4.57;;;;;;;;;;4954333;28;20431;-56
2022/06/06 03:46:54;;;;;;;7.57;3.80;;;;;;;;;;4940471;28;20441;-55
2022/06/06 03:49:27;;;;;;;4.50;3.60;;;;;;;;;;4947288;28;20451;-56
2022/06/06 03:51:59;;;;;;;4.90;4.40;;;;;;;;;;4946680;28;20450;-55
2022/06/06 03:54:25;;;;;;;4.87;3.80;;;;;;;;;;4952389;28;20442;-56
2022/06/06 03:57:01;;;;;;;4.60;3.83;;;;;;;;;;4933898;28;20463;-55
2022/06/06 03:59:32;;;;;;;5.50;4.50;;;;;;;;;;4949964;28;20485;-56
2022/06/06 04:02:00;;;;;;;10.63;4.37;;;;;;;;;;4934413;28;20924;-56
2022/06/06 04:04:26;;;;;;;5.03;3.63;;;;;;;;;;4949231;28;20474;-55
2022/06/06 04:06:58;;;;;;;4.53;3.87;;;;;;;;;;4936045;28;20454;-56
2022/06/06 04:09:25;;;;;;;4.27;3.60;;;;;;;;;;4944092;28;20453;-59
2022/06/06 04:11:54;;;;;;;4.60;4.00;;;;;;;;;;4950401;28;20521;-55
2022/06/06 04:14:24;;;;;;;5.27;4.77;;;;;;;;;;4945901;28;20439;-55
2022/06/06 04:17:08;;;;;;;7.20;4.10;;;;;;;;;;4944512;28;20683;-57
2022/06/06 04:19:41;;;;;;;6.10;5.27;;;;;;;;;;4951704;28;20537;-56
2022/06/06 04:22:25;;;;;;;5.10;4.10;;;;;;;;;;4946490;28;20439;-55
2022/06/06 04:24:52;;;;;;;4.73;4.33;;;;;;;;;;4952199;28;20549;-55
2022/06/06 04:27:25;;;;;;;4.57;4.10;;;;;;;;;;4934225;28;20753;-54
2022/06/06 04:30:01;;;;;;;6.00;4.00;;;;;;;;;;4948071;28;20446;-55
2022/06/06 04:32:42;;;;;;;5.57;4.50;;;;;;;;;;4945350;28;20438;-55
2022/06/06 04:35:12;;;;;;;4.57;4.17;;;;;;;;;;4949735;28;20458;-55
2022/06/06 04:37:44;;;;;;;5.00;4.10;;;;;;;;;;4905558;28;20853;-55
2022/06/06 04:40:21;;;;;;;6.03;4.60;;;;;;;;;;4946975;28;20911;-56
2022/06/06 04:42:47;;;;;;;4.40;4.00;;;;;;;;;;4946399;28;20442;-57
2022/06/06 04:45:20;;;;;;;4.23;3.83;;;;;;;;;;4948879;28;20438;-56
2022/06/06 04:47:46;;;;;;;4.30;3.63;;;;;;;;;;4928653;28;20455;-57
2022/06/06 04:50:15;;;;;;;4.40;3.83;;;;;;;;;;4950065;28;20458;-56
2022/06/06 04:52:43;;;;;;;4.10;3.70;;;;;;;;;;4947232;28;20198;-60
2022/06/06 04:55:10;;;;;;;4.73;4.27;;;;;;;;;;4948160;28;20446;-55
2022/06/06 04:57:36;;;;;;;6.47;4.50;;;;;;;;;;4925471;28;20509;-56
2022/06/06 05:00:03;;;;;;;5.20;4.50;;;;;;;;;;4949997;28;20493;-56
2022/06/06 05:02:29;;;;;;;4.57;3.80;;;;;;;;;;4947000;28;20446;-56
2022/06/06 05:04:56;;;;;;;6.20;4.40;;;;;;;;;;4949980;28;20441;-55
2022/06/06 05:07:25;;;;;;;4.60;4.10;;;;;;;;;;4948171;28;20435;-56
2022/06/06 05:09:51;;;;;;;4.20;3.50;;;;;;;;;;4944488;28;20451;-55
2022/06/06 05:12:22;;;;;;;4.50;3.70;;;;;;;;;;4914805;28;20851;-56
2022/06/06 05:15:08;;;;;;;4.90;3.80;;;;;;;;;;4951536;28;20967;-56
2022/06/06 05:17:48;;;;;;;4.13;3.40;;;;;;;;;;4931246;28;20525;-55
2022/06/06 05:20:18;;;;;;;4.67;4.17;;;;;;;;;;4952858;28;20991;-57
2022/06/06 05:22:57;;;;;;;4.77;4.23;;;;;;;;;;4945216;28;20466;-56
2022/06/06 05:25:26;;;;;;;8.30;3.90;;;;;;;;;;4967777;28;20446;-57
2022/06/06 05:28:08;;;;;;;5.53;3.33;;;;;;;;;;4935095;28;20447;-56
2022/06/06 05:30:37;;;;;;;5.10;3.50;;;;;;;;;;4949224;28;21014;-56
2022/06/06 05:33:15;;;;;;;4.20;3.80;;;;;;;;;;4948206;28;20442;-57
2022/06/06 05:36:00;;;;;;;5.73;3.50;;;;;;;;;;4951886;28;20470;-56
2022/06/06 05:38:45;;;;;;;4.07;3.30;;;;;;;;;;4930221;28;20820;-57
2022/06/06 05:41:15;;;;;;;3.73;3.30;;;;;;;;;;4965125;28;20519;-55
2022/06/06 05:43:51;;;;;;;4.17;3.33;;;;;;;;;;4942506;28;20862;-56
2022/06/06 05:46:25;;;;;;;4.27;3.67;;;;;;;;;;4948291;28;20506;-56
2022/06/06 05:49:10;;;;;;;4.37;3.63;;;;;;;;;;4916815;28;20447;-58
2022/06/06 05:51:36;;;;;;;5.17;3.77;;;;;;;;;;4948996;28;20443;-55
2022/06/06 05:54:02;;;;;;;9.10;3.60;;;;;;;;;;4950814;28;20432;-56
2022/06/06 05:56:52;;;;;;;4.07;3.70;;;;;;;;;;4949269;28;20472;-56
2022/06/06 05:59:44;;;;;;;4.70;2.90;;;;;;;;;;4943670;28;20223;-58
2022/06/06 06:02:29;;;;;;;3.57;3.10;;;;;;;;;;4951676;28;20662;-56
2022/06/06 06:04:58;;;;;;;4.40;3.63;;;;;;;;;;4951392;28;20610;-56
2022/06/06 06:07:34;;;;;;;4.13;3.73;;;;;;;;;;4940560;28;20530;-58
2022/06/06 06:10:06;;;;;;;3.43;3.13;;;;;;;;;;4949358;28;20453;-57
2022/06/06 06:12:39;;;;;;;4.87;3.90;;;;;;;;;;4941033;28;20729;-57
2022/06/06 06:15:24;;;;;;;5.07;3.93;;;;;;;;;;4945910;28;20488;-57
2022/06/06 06:17:52;;;;;;;3.60;2.73;;;;;;;;;;4932355;28;20900;-57
2022/06/06 06:20:19;;;;;;;4.10;3.70;;;;;;;;;;4947722;28;20968;-56
2022/06/06 06:22:55;;;;;;;4.60;4.20;;;;;;;;;;4914366;28;20882;-57
2022/06/06 06:25:21;;;;;;;7.13;4.30;;;;;;;;;;4947667;28;20932;-57
2022/06/06 06:27:47;;;;;;;4.30;3.90;;;;;;;;;;4927509;28;21378;-56
2022/06/06 06:30:13;;;;;;;4.50;3.40;;;;;;;;;;4949098;28;20450;-56
2022/06/06 06:32:44;;;;;;;4.03;3.53;;;;;;;;;;4934000;28;20187;-56
2022/06/06 06:35:19;;;;;;;5.30;3.40;;;;;;;;;;4961387;28;20458;-56
2022/06/06 06:37:48;;;;;;;4.53;3.33;;;;;;;;;;4943666;28;20435;-56
2022/06/06 06:40:21;;;;;;;5.50;3.43;;;;;;;;;;4944563;28;20530;-55
2022/06/06 06:43:04;;;;;;;4.03;3.63;;;;;;;;;;4936506;28;20952;-55
2022/06/06 06:45:33;;;;;;;4.30;3.27;;;;;;;;;;4946571;28;20451;-55
2022/06/06 06:48:02;;;;;;;3.63;3.33;;;;;;;;;;4929390;28;20958;-56
2022/06/06 06:50:34;;;;;;;4.13;3.73;;;;;;;;;;4951695;28;20461;-56
2022/06/06 06:53:03;;;;;;;3.93;3.60;;;;;;;;;;4906221;28;20443;-56
2022/06/06 06:55:45;;;;;;;4.17;3.77;;;;;;;;;;4948298;28;20452;-56
2022/06/06 06:58:17;;;;;;;5.00;4.50;;;;;;;;;;4959357;28;20450;-54
2022/06/06 07:00:46;;;;;;;4.97;4.17;;;;;;;;;;4943023;28;20478;-57
2022/06/06 07:09:07;;;;;;;3.90;3.60;;;;;;;;;;4929756;28;20501;-58
2022/06/06 07:11:33;;;;;;;4.07;3.67;;;;;;;;;;4950064;28;20478;-57
2022/06/06 07:14:02;;;;;;;4.67;4.20;;;;;;;;;;4948951;28;20523;-56
2022/06/06 07:16:50;;;;;;;5.00;4.40;;;;;;;;;;4947734;28;20447;-57
2022/06/06 07:19:20;;;;;;;4.90;4.00;;;;;;;;;;4939987;28;20506;-57
2022/06/06 07:21:46;;;;;;;4.47;4.03;;;;;;;;;;4941931;28;20443;-56
2022/06/06 07:24:15;;;;;;;5.57;3.70;;;;;;;;;;4947436;28;20454;-57
2022/06/06 07:26:41;;;;;;;4.30;3.90;;;;;;;;;;4931628;28;20525;-57
2022/06/06 07:29:08;;;;;;;3.97;3.57;;;;;;;;;;4925693;28;20446;-56
2022/06/06 07:31:38;;;;;;;4.50;3.87;;;;;;;;;;4940869;28;20462;-59
2022/06/06 07:34:12;;;;;;;4.37;3.53;;;;;;;;;;4961011;28;20448;-56
2022/06/06 07:36:38;;;;;;;6.20;3.43;;;;;;;;;;4949341;28;20438;-55
2022/06/06 07:39:13;;;;;;;4.20;3.80;;;;;;;;;;4943125;28;20527;-56
2022/06/06 07:41:58;;;;;;;4.80;4.30;;;;;;;;;;4939479;28;20644;-56
2022/06/06 07:44:33;;;;;;;6.27;3.97;;;;;;;;;;4946099;28;20655;-56
2022/06/06 07:47:12;;;;;;;3.90;3.50;;;;;;;;;;4955476;28;20430;-57
2022/06/06 07:49:47;;;;;;;5.10;4.17;;;;;;;;;;4944196;28;20443;-56
2022/06/06 07:52:13;;;;;;;4.03;3.40;;;;;;;;;;4950837;28;20509;-56
2022/06/06 07:54:48;;;;;;;4.00;3.37;;;;;;;;;;4952594;28;20442;-57
2022/06/06 07:57:21;;;;;;;4.90;4.00;;;;;;;;;;4930048;28;20199;-56
2022/06/06 07:59:52;;;;;;;7.13;3.63;;;;;;;;;;4947445;28;20492;-56
2022/06/06 08:02:21;;;;;;;3.90;3.50;;;;;;;;;;4910735;28;20466;-57
2022/06/06 08:05:10;;;;;;;4.30;3.07;;;;;;;;;;4951304;28;20470;-56
2022/06/06 08:07:48;;;;;;;4.30;3.87;;;;;;;;;;4928691;28;20446;-57
2022/06/06 08:10:31;;;;;;;4.40;3.70;;;;;;;;;;4948907;28;20523;-57
2022/06/06 08:13:19;;;;;;;4.00;2.90;;;;;;;;;;4939946;28;20454;-60
2022/06/06 08:15:52;;;;;;;5.67;3.50;;;;;;;;;;4962987;28;20427;-57
2022/06/06 08:18:33;;;;;;;3.60;3.30;;;;;;;;;;4945460;28;20478;-57
2022/06/06 08:21:02;;;;;;;4.47;3.90;;;;;;;;;;4941657;28;20490;-57
2022/06/06 08:23:28;;;;;;;4.33;3.93;;;;;;;;;;4942013;28;20722;-57
2022/06/06 08:25:54;;;;;;;4.13;3.73;;;;;;;;;;4949620;28;21034;-56
2022/06/06 08:28:20;;;;;;;6.73;3.77;;;;;;;;;;4931740;28;20447;-53
2022/06/06 08:30:46;;;;;;;3.73;3.07;;;;;;;;;;4965316;28;20188;-56
2022/06/06 08:33:12;;;;;;;4.63;2.87;;;;;;;;;;4941039;28;20867;-56
2022/06/06 08:35:53;;;;;;;3.57;3.27;;;;;;;;;;4951713;28;20447;-56
2022/06/06 08:38:35;;;;;;;3.60;2.90;;;;;;;;;;4916548;28;20193;-57
2022/06/06 08:41:13;;;;;;;3.60;3.07;;;;;;;;;;4954737;28;20478;-56
2022/06/06 08:43:46;;;;;;;5.37;2.50;;;;;;;;;;4942718;28;20433;-56
2022/06/06 08:46:30;;;;;;;3.20;2.47;;;;;;;;;;4944714;28;20512;-56
2022/06/06 08:48:59;;;;;;;2.90;2.40;;;;;;;;;;4935903;28;20446;-56
2022/06/06 08:51:39;;;;;;;3.20;2.80;;;;;;;;;;4953678;28;20442;-55
2022/06/06 08:54:09;;;;;;;3.93;2.43;;;;;;;;;;4943056;28;20454;-56
2022/06/06 08:56:54;;;;;;;3.83;3.20;;;;;;;;;;4944346;28;20453;-55
2022/06/06 08:59:26;;;;;;;3.10;2.47;;;;;;;;;;4951224;28;20463;-56
2022/06/06 09:02:11;;;;;;;3.30;3.00;;;;;;;;;;4949729;28;20446;-57
2022/06/06 09:04:37;;;;;;;3.90;2.90;;;;;;;;;;4945630;28;20531;-56
2022/06/06 09:07:23;;;;;;;4.93;2.53;;;;;;;;;;4930681;28;20983;-57
2022/06/06 09:10:03;;;;;;;3.50;2.63;;;;;;;;;;4954122;28;20230;-57
2022/06/06 09:12:41;;;;;;;3.10;2.80;;;;;;;;;;4948612;28;20462;-57
2022/06/06 09:15:07;;;;;;;3.53;2.77;;;;;;;;;;4950683;28;20589;-58
2022/06/06 09:17:42;;;;;;;2.47;2.23;;;;;;;;;;4947370;28;20878;-56
2022/06/06 09:20:18;;;;;;;3.83;2.80;;;;;;;;;;4943344;28;20523;-56
2022/06/06 09:23:02;;;;;;;2.67;2.40;;;;;;;;;;4952950;28;20441;-57
2022/06/06 09:25:31;;;;;;;3.40;2.83;;;;;;;;;;4948072;28;20435;-57
2022/06/06 09:28:00;;;;;;;4.83;2.40;;;;;;;;;;4933780;28;20443;-59
2022/06/06 09:30:29;;;;;;;5.93;2.70;;;;;;;;;;4952194;28;20425;-57
2022/06/06 09:33:25;;;;;;;3.20;2.60;;;;;;;;;;4946148;28;20440;-58
2022/06/06 09:36:00;;;;;;;2.60;2.40;;;;;;;;;;4937135;28;20600;-57
2022/06/06 09:38:45;;;;;;;2.83;2.30;;;;;;;;;;4919104;28;20825;-57
2022/06/06 09:41:31;;;;;;;2.53;2.30;;;;;;;;;;4953381;28;20836;-56
2022/06/06 09:43:58;;;;;;;2.57;2.10;;;;;;;;;;4947671;28;20439;-58
2022/06/06 09:46:43;;;;;;;4.90;2.80;;;;;;;;;;4950027;28;20449;-57
2022/06/06 09:49:13;;;;;;;7.57;2.67;;;;;;;;;;4950221;28;20445;-60
2022/06/06 09:51:58;;;;;;;3.20;2.40;;;;;;;;;;4949828;28;20446;-57
2022/06/06 10:00:18;;;;;;;3.47;2.63;;;;;;;;;;4953889;28;20543;-57
2022/06/06 10:02:44;;;;;;;4.00;2.20;;;;;;;;;;4944089;28;20798;-57
2022/06/06 10:05:16;;;;;;;3.20;2.43;;;;;;;;;;4953175;28;20450;-58
2022/06/06 10:07:52;;;;;;;3.00;2.30;;;;;;;;;;4927215;28;20427;-56
2022/06/06 10:10:37;;;;;;;3.73;2.50;;;;;;;;;;4954371;28;20445;-58
2022/06/06 10:13:13;;;;;;;4.40;2.40;;;;;;;;;;4909794;28;20447;-57
2022/06/06 10:15:52;;;;;;;2.60;2.20;;;;;;;;;;4951972;28;20451;-57
2022/06/06 10:18:31;;;;;;;3.97;3.20;;;;;;;;;;4962210;28;20796;-57
2022/06/06 10:21:17;;;;;;;3.50;2.13;;;;;;;;;;4956954;28;20482;-58
2022/06/06 10:24:18;;;;;;;2.50;2.27;;;;;;;;;;4944406;28;20458;-58
2022/06/06 10:26:49;;;;;;;4.80;2.60;;;;;;;;;;4922356;29;20908;-57
2022/06/06 10:30:10;;;;;;;5.43;2.40;;;;;;;;;;4935819;28;20443;-63
2022/06/06 10:32:22;;;;;;;3.03;1.93;;;;;;;;;;4946031;28;20487;-59
2022/06/06 10:35:07;;;;;;;2.67;2.10;;;;;;;;;;4953579;28;20442;-57
2022/06/06 10:37:52;;;;;;;3.63;2.33;;;;;;;;;;4933877;28;20443;-58
2022/06/06 10:40:20;;;;;;;2.73;2.03;;;;;;;;;;4950903;28;20629;-56
2022/06/06 10:42:51;;;;;;;2.70;2.43;;;;;;;;;;4909154;28;20511;-56
2022/06/06 10:45:27;;;;;;;4.97;2.57;;;;;;;;;;4952585;28;20431;-57
2022/06/06 10:48:08;;;;;;;3.17;2.20;;;;;;;;;;4944849;28;20450;-57
2022/06/06 10:51:36;;;;;;;2.50;2.00;;;;;;;;;;4952917;28;20529;-57
2022/06/06 10:53:34;;;;;;;2.53;2.33;;;;;;;;;;4941967;28;20470;-62
2022/06/06 10:56:05;;;;;;;2.87;2.27;;;;;;;;;;4952551;28;20435;-55
2022/06/06 10:58:37;;;;;;;3.53;2.53;;;;;;;;;;4930615;28;20453;-56
2022/06/06 11:01:02;;;;;;;3.60;2.07;;;;;;;;;;4947767;28;20486;-58
2022/06/06 11:03:28;;;;;;;2.83;2.00;;;;;;;;;;4945069;28;20530;-58
2022/06/06 11:06:07;;;;;;;2.53;2.20;;;;;;;;;;4953005;28;20241;-57
2022/06/06 11:08:36;;;;;;;2.87;2.23;;;;;;;;;;4946995;28;20434;-57
2022/06/06 11:11:06;;;;;;;2.07;1.70;;;;;;;;;;4945741;28;20436;-57
2022/06/06 11:13:44;;;;;;;2.93;2.17;;;;;;;;;;4942545;28;20442;-57
2022/06/06 11:16:41;;;;;;;2.70;2.20;;;;;;;;;;4951363;28;20452;-57
2022/06/06 11:19:40;;;;;;;2.90;2.20;;;;;;;;;;4925507;28;20516;-57
2022/06/06 11:22:06;;;;;;;4.67;2.40;;;;;;;;;;4942899;28;20439;-58
2022/06/06 11:24:32;;;;;;;3.00;2.60;;;;;;;;;;4945011;28;20456;-57
2022/06/06 11:27:23;;;;;;;3.10;2.27;;;;;;;;;;4934344;28;20443;-56
2022/06/06 11:29:54;;;;;;;5.20;2.50;;;;;;;;;;4949953;28;20286;-56
2022/06/06 11:32:38;;;;;;;3.17;2.87;;;;;;;;;;4947292;28;20526;-56
2022/06/06 11:35:04;;;;;;;2.53;2.10;;;;;;;;;;4952461;28;20434;-57
2022/06/06 11:37:42;;;;;;;2.67;2.03;;;;;;;;;;4932012;28;20890;-57
2022/06/06 11:40:08;;;;;;;2.80;2.23;;;;;;;;;;4948511;28;20478;-56
2022/06/06 11:42:40;;;;;;;3.60;2.37;;;;;;;;;;4947011;28;20438;-56
2022/06/06 11:45:19;;;;;;;2.57;2.33;;;;;;;;;;4953360;28;20840;-57
2022/06/06 11:48:04;;;;;;;4.20;2.10;;;;;;;;;;4940846;28;20529;-57
2022/06/06 11:50:30;;;;;;;3.90;2.23;;;;;;;;;;4952629;28;20437;-56
2022/06/06 11:52:59;;;;;;;4.07;2.40;;;;;;;;;;4918141;28;20449;-57
2022/06/06 11:55:33;;;;;;;7.60;2.80;;;;;;;;;;4952849;28;20620;-57
2022/06/06 11:58:03;;;;;;;7.17;2.50;;;;;;;;;;4936353;28;20521;-57
2022/06/06 12:00:32;;;;;;;3.80;2.30;;;;;;;;;;4951212;28;21151;-57
2022/06/06 12:03:17;;;;;;;3.53;2.63;;;;;;;;;;4948363;28;20437;-57
2022/06/06 12:05:49;;;;;;;4.70;2.50;;;;;;;;;;4946990;28;20470;-57
2022/06/06 12:08:27;;;;;;;2.50;2.03;;;;;;;;;;4948495;28;20438;-57
2022/06/06 12:10:59;;;;;;;2.90;2.50;;;;;;;;;;4945973;28;20438;-56
2022/06/06 12:13:44;;;;;;;2.67;2.30;;;;;;;;;;4949662;28;21893;-57
2022/06/06 12:16:16;;;;;;;2.53;2.30;;;;;;;;;;4953929;28;20472;-57
2022/06/06 12:18:49;;;;;;;2.53;2.00;;;;;;;;;;4932393;28;20443;-56
2022/06/06 12:21:18;;;;;;;3.20;2.30;;;;;;;;;;4951523;28;20482;-58
2022/06/06 12:23:53;;;;;;;2.33;1.77;;;;;;;;;;4949337;28;20446;-58
2022/06/06 12:26:44;;;;;;;2.13;1.60;;;;;;;;;;4954086;28;20430;-57
2022/06/06 12:29:20;;;;;;;3.00;2.17;;;;;;;;;;4938997;28;20465;-57
2022/06/06 12:31:56;;;;;;;3.30;2.30;;;;;;;;;;4956672;28;20446;-58
2022/06/06 12:34:22;;;;;;;3.30;2.00;;;;;;;;;;4953430;28;20434;-57
2022/06/06 12:36:54;;;;;;;2.43;2.13;;;;;;;;;;4945877;28;21215;-56
2022/06/06 12:39:23;;;;;;;2.60;1.80;;;;;;;;;;4946122;28;20458;-56
2022/06/06 12:42:19;;;;;;;3.10;2.13;;;;;;;;;;4951665;28;20423;-58
2022/06/06 12:44:57;;;;;;;2.27;1.60;;;;;;;;;;4953020;28;20451;-56
2022/06/06 12:47:27;;;;;;;2.53;2.07;;;;;;;;;;4933851;28;21186;-56
2022/06/06 12:49:59;;;;;;;4.47;2.00;;;;;;;;;;4951590;28;20426;-57
2022/06/06 12:52:25;;;;;;;2.63;2.00;;;;;;;;;;4956731;28;20654;-60
2022/06/06 12:57:42;;;;;;;2.13;1.93;;;;;;;;;;4958425;28;20211;-57
2022/06/06 13:00:10;;;;;;;2.40;2.20;;;;;;;;;;4963987;28;20474;-57
2022/06/06 13:02:37;;;;;;;3.03;2.10;;;;;;;;;;4904492;28;20442;-57
2022/06/06 13:05:03;;;;;;;2.43;1.83;;;;;;;;;;4948308;28;20515;-59
2022/06/06 13:07:45;;;;;;;2.23;2.03;;;;;;;;;;4939772;28;20205;-57
2022/06/06 13:10:28;;;;;;;5.03;2.57;;;;;;;;;;4947857;28;20489;-58
2022/06/06 13:13:06;;;;;;;4.13;2.27;;;;;;;;;;4940290;28;20428;-58
2022/06/06 13:15:41;;;;;;;8.63;2.53;;;;;;;;;;4951238;28;20461;-58
2022/06/06 13:18:13;;;;;;;3.27;2.40;;;;;;;;;;4936193;28;20546;-58
2022/06/06 13:20:40;;;;;;;4.70;2.50;;;;;;;;;;4949184;28;20493;-57
2022/06/06 13:23:12;;;;;;;3.63;2.63;;;;;;;;;;4944386;28;20534;-58
2022/06/06 13:25:54;;;;;;;3.97;2.77;;;;;;;;;;4947099;28;20614;-57
2022/06/06 13:28:20;;;;;;;3.00;2.60;;;;;;;;;;4934355;28;20778;-57
2022/06/06 13:30:49;;;;;;;3.20;2.40;;;;;;;;;;4952148;28;20434;-59
2022/06/06 13:33:34;;;;;;;3.20;2.27;;;;;;;;;;4909354;28;20455;-57
2022/06/06 13:36:09;;;;;;;2.63;2.07;;;;;;;;;;4950875;28;20430;-58
2022/06/06 13:38:36;;;;;;;3.10;1.80;;;;;;;;;;4917661;28;20453;-57
2022/06/06 13:41:08;;;;;;;3.60;2.67;;;;;;;;;;4952485;28;20468;-58
2022/06/06 13:43:38;;;;;;;5.80;2.23;;;;;;;;;;4948487;28;20423;-57
2022/06/06 13:46:19;;;;;;;2.40;2.20;;;;;;;;;;4942259;28;20508;-57
2022/06/06 13:49:06;;;;;;;2.80;2.27;;;;;;;;;;4959481;28;20474;-57
2022/06/06 13:51:39;;;;;;;2.47;2.27;;;;;;;;;;4953218;28;20423;-57
2022/06/06 13:54:06;;;;;;;3.93;2.40;;;;;;;;;;4955084;28;20419;-57
2022/06/06 13:56:52;;;;;;;2.63;2.43;;;;;;;;;;4955791;28;20414;-56
2022/06/06 13:59:25;;;;;;;5.03;2.60;;;;;;;;;;4935061;28;20419;-57
2022/06/06 14:02:24;;;;;;;5.60;2.27;;;;;;;;;;4953443;28;20446;-59
2022/06/06 14:04:59;;;;;;;2.43;2.23;;;;;;;;;;4929961;28;20516;-57
2022/06/06 14:07:44;;;;;;;3.80;2.63;;;;;;;;;;4924694;28;21008;-59
2022/06/06 14:10:11;;;;;;;2.40;2.20;;;;;;;;;;4949297;28;20438;-57
2022/06/06 14:12:43;;;;;;;3.73;2.37;;;;;;;;;;4943224;28;21336;-58
2022/06/06 14:15:11;;;;;;;3.33;2.73;;;;;;;;;;4953995;28;20435;-57
2022/06/06 14:17:38;;;;;;;3.67;2.30;;;;;;;;;;4930836;28;20496;-58
2022/06/06 14:20:19;;;;;;;3.40;2.93;;;;;;;;;;4949694;28;20513;-57
2022/06/06 14:22:45;;;;;;;3.80;2.47;;;;;;;;;;4945676;28;20817;-57
2022/06/06 14:25:12;;;;;;;3.17;2.20;;;;;;;;;;4953354;28;20467;-57
2022/06/06 14:27:38;;;;;;;3.80;2.37;;;;;;;;;;4943552;28;20529;-57
2022/06/06 14:30:07;;;;;;;4.83;2.50;;;;;;;;;;4952423;28;20427;-57
2022/06/06 14:32:42;;;;;;;2.87;2.50;;;;;;;;;;4943164;28;20696;-56
2022/06/06 14:35:18;;;;;;;3.43;3.10;;;;;;;;;;4953284;28;20483;-57
2022/06/06 14:37:47;;;;;;;3.47;2.73;;;;;;;;;;4916050;28;20453;-57
2022/06/06 14:40:14;;;;;;;6.77;3.00;;;;;;;;;;4948503;28;20471;-57
2022/06/06 14:42:44;;;;;;;4.87;2.30;;;;;;;;;;4946157;28;20992;-57
2022/06/06 14:45:13;;;;;;;3.70;2.80;;;;;;;;;;4951666;28;20794;-57
2022/06/06 14:48:00;;;;;;;5.43;3.23;;;;;;;;;;4947477;28;20439;-57
2022/06/06 14:53:32;;;;;;;2.87;2.57;;;;;;;;;;4944166;28;20943;-57
2022/06/06 14:56:21;;;;;;;3.60;2.50;;;;;;;;;;4965846;28;20439;-57
2022/06/06 14:58:54;;;;;;;3.40;2.40;;;;;;;;;;4939529;28;20836;-57
2022/06/06 15:01:24;;;;;;;2.77;2.57;;;;;;;;;;4951026;28;20486;-57
2022/06/06 15:03:52;;;;;;;3.13;2.20;;;;;;;;;;4942646;28;20443;-57
2022/06/06 15:06:29;;;;;;;5.60;2.77;;;;;;;;;;4952405;28;20427;-57
2022/06/06 15:08:58;;;;;;;3.43;2.73;;;;;;;;;;4948467;28;20439;-58
2022/06/06 15:11:25;;;;;;;3.30;2.83;;;;;;;;;;4952846;28;20529;-57
2022/06/06 15:14:14;;;;;;;4.53;3.53;;;;;;;;;;4909629;28;20463;-58
2022/06/06 15:16:40;;;;;;;2.67;2.47;;;;;;;;;;4950655;28;20432;-57
2022/06/06 15:19:08;;;;;;;3.03;2.63;;;;;;;;;;4944170;28;20461;-58
2022/06/06 15:21:35;;;;;;;3.10;2.60;;;;;;;;;;4950959;28;20980;-58
2022/06/06 15:24:02;;;;;;;3.03;2.47;;;;;;;;;;4946701;28;20786;-57
2022/06/06 15:26:28;;;;;;;2.70;2.50;;;;;;;;;;4951237;28;21259;-58
2022/06/06 15:28:56;;;;;;;3.10;2.70;;;;;;;;;;4941338;28;20779;-57
2022/06/06 15:31:41;;;;;;;3.50;2.93;;;;;;;;;;4950370;28;20470;-57
2022/06/06 15:34:22;;;;;;;3.07;2.53;;;;;;;;;;4942950;28;20523;-57
2022/06/06 15:36:50;;;;;;;4.40;2.90;;;;;;;;;;4944444;28;20518;-56
2022/06/06 15:39:39;;;;;;;4.10;2.83;;;;;;;;;;4923591;28;20446;-58
2022/06/06 15:42:11;;;;;;;3.30;2.63;;;;;;;;;;4951832;28;20446;-56
2022/06/06 15:44:38;;;;;;;3.03;2.53;;;;;;;;;;4900599;28;20458;-57
2022/06/06 15:47:11;;;;;;;3.03;2.73;;;;;;;;;;4956158;28;20442;-57